SESA/SNC METAR and TAF weather

Enter ICAO airport designator
Station Type Date Time Source
SESA METAR 2021/03/08 16:00 UTC NOAA

SESA 081600Z 27003KT 9999 BKN020 28/23 Q1013 RMK A2995


Station Type Date Time Source
SESA Decoded METAR 2021/03/08 16:00 UTC NOAA

Salinas / General Ulpiano Paez, Ecuador (SESA) 02-12S 080-59W 8M
Mar 08, 2021 - 11:00 AM EST / 2021.03.08 1600 UTC
Wind: from the W (270 degrees) at 3 MPH (3 KT):0
Visibility: greater than 7 mile(s):0
Sky conditions: mostly cloudy
Temperature: 82 F (28 C)
Dew Point: 73 F (23 C)
Relative Humidity: 74%
Pressure (altimeter): 29.91 in. Hg (1013 hPa)
ob: SESA 081600Z 27003KT 9999 BKN020 28/23 Q1013 RMK A2995
cycle: 16

Station Type Date Time Source
SESA TAF UTC NOAA

Error!

Example: see airport list